createdAt,value
2018-12-16T00:00:31.385Z,306
2018-12-16T00:01:38.579Z,306
2018-12-16T00:02:45.769Z,306
2018-12-16T00:03:52.965Z,306
2018-12-16T00:05:00.153Z,306
2018-12-16T00:06:07.345Z,306
2018-12-16T00:07:14.264Z,305
2018-12-16T00:08:21.180Z,306
2018-12-16T00:09:28.117Z,306
2018-12-16T00:10:35.308Z,306
2018-12-16T00:11:42.497Z,306
2018-12-16T00:12:49.688Z,306
2018-12-16T00:13:56.881Z,306
2018-12-16T00:15:04.075Z,306
2018-12-16T00:16:11.267Z,305
2018-12-16T00:17:18.458Z,306
2018-12-16T00:18:25.647Z,306
2018-12-16T00:19:32.844Z,306
2018-12-16T00:20:40.042Z,306
2018-12-16T00:21:47.241Z,305
2018-12-16T00:22:54.439Z,306
2018-12-16T00:24:01.629Z,305
2018-12-16T00:25:08.823Z,306
2018-12-16T00:26:16.010Z,305
2018-12-16T00:27:22.626Z,306
2018-12-16T00:28:29.815Z,305
2018-12-16T00:29:36.737Z,306
2018-12-16T00:30:43.934Z,305
2018-12-16T00:31:50.865Z,306
2018-12-16T00:32:58.054Z,306
2018-12-16T00:34:05.036Z,305
2018-12-16T00:35:11.957Z,305
2018-12-16T00:36:19.150Z,305
2018-12-16T00:37:26.341Z,306
2018-12-16T00:38:33.260Z,305
2018-12-16T00:39:40.456Z,305
2018-12-16T00:40:47.376Z,305
2018-12-16T00:41:54.566Z,305
2018-12-16T00:43:01.485Z,305
2018-12-16T00:44:08.676Z,305
2018-12-16T00:45:15.868Z,306
2018-12-16T00:46:23.063Z,306
2018-12-16T00:47:30.262Z,306
2018-12-16T00:48:37.291Z,306
2018-12-16T00:49:44.190Z,306
2018-12-16T00:50:51.384Z,306
2018-12-16T00:51:58.572Z,306
2018-12-16T00:53:05.764Z,307
2018-12-16T00:54:12.684Z,306
2018-12-16T00:55:19.880Z,306
2018-12-16T00:56:27.072Z,306
2018-12-16T00:57:34.267Z,307
2018-12-16T00:58:41.460Z,307
2018-12-16T00:59:48.651Z,307
2018-12-16T01:00:55.844Z,307
2018-12-16T01:02:02.764Z,307
2018-12-16T01:03:09.956Z,307
2018-12-16T01:04:17.155Z,307
2018-12-16T01:05:24.350Z,307
2018-12-16T01:06:31.538Z,308
2018-12-16T01:07:38.454Z,307
2018-12-16T01:08:45.373Z,307
2018-12-16T01:09:52.566Z,307
2018-12-16T01:10:59.759Z,307
2018-12-16T01:12:06.959Z,306
2018-12-16T01:13:13.885Z,307
2018-12-16T01:14:21.082Z,307
2018-12-16T01:15:28.278Z,307
2018-12-16T01:16:35.197Z,307
2018-12-16T01:17:42.112Z,306
2018-12-16T01:18:49.303Z,307
2018-12-16T01:19:55.951Z,306
2018-12-16T01:21:03.144Z,306
2018-12-16T01:22:10.335Z,306
2018-12-16T01:23:17.526Z,307
2018-12-16T01:24:24.719Z,306
2018-12-16T01:25:31.912Z,306
2018-12-16T01:26:38.835Z,306
2018-12-16T01:27:46.032Z,306
2018-12-16T01:28:52.946Z,307
2018-12-16T01:30:00.142Z,306
2018-12-16T01:31:07.335Z,306
2018-12-16T01:32:14.529Z,306
2018-12-16T01:33:21.725Z,306
2018-12-16T01:34:28.895Z,307
2018-12-16T01:35:36.093Z,306
2018-12-16T01:36:43.019Z,306
2018-12-16T01:37:50.218Z,306
2018-12-16T01:38:57.414Z,306
2018-12-16T01:40:04.611Z,306
2018-12-16T01:41:11.802Z,307
2018-12-16T01:42:19.044Z,307
2018-12-16T01:43:26.234Z,307
2018-12-16T01:44:33.150Z,306
2018-12-16T01:45:40.345Z,306
2018-12-16T01:46:47.538Z,306
2018-12-16T01:47:54.733Z,307
2018-12-16T01:49:01.654Z,306
2018-12-16T01:50:08.850Z,307
2018-12-16T01:51:16.047Z,306
2018-12-16T01:52:23.238Z,307
2018-12-16T01:53:30.425Z,307
2018-12-16T01:54:37.617Z,307
2018-12-16T01:55:44.811Z,308
2018-12-16T01:56:52.006Z,307
2018-12-16T01:57:58.926Z,308
2018-12-16T01:59:05.848Z,308
2018-12-16T02:00:12.766Z,308
2018-12-16T02:01:19.955Z,308
2018-12-16T02:02:27.148Z,309
2018-12-16T02:03:34.343Z,309
2018-12-16T02:04:41.263Z,309
2018-12-16T02:05:48.456Z,309
2018-12-16T02:06:55.095Z,309
2018-12-16T02:08:02.289Z,310
2018-12-16T02:09:09.489Z,309
2018-12-16T02:10:16.717Z,310
2018-12-16T02:11:23.893Z,309
2018-12-16T02:12:31.090Z,310
2018-12-16T02:13:38.291Z,309
2018-12-16T02:14:45.208Z,309
2018-12-16T02:15:52.402Z,310
2018-12-16T02:16:59.319Z,310
2018-12-16T02:18:06.523Z,310
2018-12-16T02:19:13.713Z,310
2018-12-16T02:20:20.905Z,311
2018-12-16T02:21:28.098Z,310
2018-12-16T02:22:35.290Z,311
2018-12-16T02:23:42.481Z,310
2018-12-16T02:24:49.672Z,310
2018-12-16T02:25:56.863Z,310
2018-12-16T02:27:04.062Z,311
2018-12-16T02:28:11.254Z,311
2018-12-16T02:29:18.171Z,311
2018-12-16T02:30:25.363Z,311
2018-12-16T02:31:32.558Z,312
2018-12-16T02:32:39.751Z,311
2018-12-16T02:33:46.666Z,311
2018-12-16T02:34:53.861Z,310
2018-12-16T02:36:01.057Z,311
2018-12-16T02:37:07.969Z,311
2018-12-16T02:38:15.159Z,311
2018-12-16T02:39:22.078Z,311
2018-12-16T02:40:29.270Z,311
2018-12-16T02:41:36.462Z,310
2018-12-16T02:42:43.660Z,311
2018-12-16T02:43:50.849Z,310
2018-12-16T02:44:57.766Z,311
2018-12-16T02:46:04.407Z,311
2018-12-16T02:47:11.599Z,311
2018-12-16T02:48:18.526Z,311
2018-12-16T02:49:25.722Z,311
2018-12-16T02:50:32.910Z,311
2018-12-16T02:51:40.100Z,311
2018-12-16T02:52:47.291Z,311
2018-12-16T02:53:54.501Z,311
2018-12-16T02:55:01.691Z,311
2018-12-16T02:56:08.608Z,311
2018-12-16T02:57:15.877Z,311
2018-12-16T02:58:22.787Z,311
2018-12-16T02:59:29.430Z,311
2018-12-16T03:00:36.622Z,311
2018-12-16T03:01:43.810Z,311
2018-12-16T03:02:50.726Z,311
2018-12-16T03:03:57.923Z,311
2018-12-16T03:05:05.114Z,311
2018-12-16T03:06:12.302Z,311
2018-12-16T03:07:19.494Z,311
2018-12-16T03:08:26.685Z,311
2018-12-16T03:09:33.607Z,311
2018-12-16T03:10:40.803Z,311
2018-12-16T03:11:47.994Z,311
2018-12-16T03:13:09.833Z,311
2018-12-16T03:14:16.747Z,311
2018-12-16T03:15:23.938Z,311
2018-12-16T03:16:31.128Z,311
2018-12-16T03:17:38.330Z,311
2018-12-16T03:18:45.238Z,311
2018-12-16T03:19:52.152Z,311
2018-12-16T03:20:58.792Z,311
2018-12-16T03:22:05.998Z,311
2018-12-16T03:23:13.635Z,311
2018-12-16T03:24:20.826Z,311
2018-12-16T03:25:28.031Z,311
2018-12-16T03:26:37.128Z,311
2018-12-16T03:27:44.324Z,311
2018-12-16T03:28:51.518Z,311
2018-12-16T03:29:58.445Z,311
2018-12-16T03:31:05.715Z,311
2018-12-16T03:32:12.910Z,312
2018-12-16T03:33:20.098Z,311
2018-12-16T03:34:27.287Z,311
2018-12-16T03:35:34.479Z,311
2018-12-16T03:36:41.677Z,311
2018-12-16T03:37:48.860Z,311
2018-12-16T03:38:56.056Z,311
2018-12-16T03:40:03.277Z,311
2018-12-16T03:41:10.463Z,311
2018-12-16T03:42:17.655Z,311
2018-12-16T03:43:24.906Z,311
2018-12-16T03:44:32.098Z,311
2018-12-16T03:45:38.740Z,312
2018-12-16T03:46:45.685Z,311
2018-12-16T03:47:52.866Z,311
2018-12-16T03:49:00.060Z,312
2018-12-16T03:50:07.253Z,311
2018-12-16T03:51:13.901Z,311
2018-12-16T03:52:21.071Z,311
2018-12-16T03:53:27.708Z,311
2018-12-16T03:54:34.629Z,311
2018-12-16T03:55:41.819Z,312
2018-12-16T03:56:48.737Z,312
2018-12-16T03:57:55.929Z,312
2018-12-16T03:59:03.122Z,312
2018-12-16T04:00:10.312Z,312
2018-12-16T04:01:17.503Z,313
2018-12-16T04:02:24.997Z,312
2018-12-16T04:03:32.188Z,313
2018-12-16T04:04:39.382Z,313
2018-12-16T04:05:46.569Z,313
2018-12-16T04:06:53.763Z,312
2018-12-16T04:08:00.674Z,313
2018-12-16T04:09:07.865Z,313
2018-12-16T04:10:15.050Z,312
2018-12-16T04:11:22.245Z,313
2018-12-16T04:12:29.435Z,312
2018-12-16T04:13:36.680Z,313
2018-12-16T04:14:43.877Z,312
2018-12-16T04:15:51.066Z,313
2018-12-16T04:16:58.256Z,313
2018-12-16T04:18:05.455Z,313
2018-12-16T04:19:12.367Z,313
2018-12-16T04:20:19.292Z,313
2018-12-16T04:21:25.928Z,313
2018-12-16T04:22:33.113Z,313
2018-12-16T04:23:40.303Z,313
2018-12-16T04:24:47.500Z,313
2018-12-16T04:25:54.417Z,312
2018-12-16T04:27:01.610Z,312
2018-12-16T04:28:10.377Z,313
2018-12-16T04:29:17.816Z,313
2018-12-16T04:30:24.735Z,313
2018-12-16T04:31:31.925Z,313
2018-12-16T04:32:39.117Z,313
2018-12-16T04:33:46.033Z,314
2018-12-16T04:34:53.225Z,313
2018-12-16T04:36:00.416Z,313
2018-12-16T04:37:07.337Z,313
2018-12-16T04:38:14.255Z,313
2018-12-16T04:39:21.670Z,313
2018-12-16T04:40:28.841Z,313
2018-12-16T04:41:36.033Z,313
2018-12-16T04:42:43.222Z,313
2018-12-16T04:43:50.417Z,313
2018-12-16T04:44:57.605Z,313
2018-12-16T04:46:04.801Z,313
2018-12-16T04:47:11.994Z,313
2018-12-16T04:48:19.182Z,313
2018-12-16T04:49:26.142Z,314
2018-12-16T04:50:33.058Z,313
2018-12-16T04:51:39.981Z,313
2018-12-16T04:52:47.182Z,313
2018-12-16T04:53:54.369Z,313
2018-12-16T04:55:01.566Z,313
2018-12-16T04:56:08.757Z,313
2018-12-16T04:57:15.945Z,312
2018-12-16T04:58:23.138Z,313
2018-12-16T04:59:30.331Z,312
2018-12-16T05:00:37.249Z,313
2018-12-16T05:01:44.486Z,312
2018-12-16T05:02:51.681Z,312
2018-12-16T05:03:58.604Z,312
2018-12-16T05:05:05.822Z,312
2018-12-16T05:06:13.000Z,312
2018-12-16T05:07:20.189Z,312
2018-12-16T05:08:27.380Z,312
2018-12-16T05:09:34.571Z,312
2018-12-16T05:10:41.487Z,312
2018-12-16T05:11:48.403Z,312
2018-12-16T05:12:55.593Z,312
2018-12-16T05:14:02.516Z,312
2018-12-16T05:15:09.426Z,312
2018-12-16T05:16:16.352Z,312
2018-12-16T05:17:23.542Z,311
2018-12-16T05:18:30.458Z,312
2018-12-16T05:19:37.377Z,312
2018-12-16T05:20:44.305Z,312
2018-12-16T05:21:51.230Z,312
2018-12-16T05:22:58.424Z,311
2018-12-16T05:24:05.613Z,311
2018-12-16T05:25:12.799Z,312
2018-12-16T05:26:20.045Z,312
2018-12-16T05:27:27.224Z,312
2018-12-16T05:28:34.414Z,311
2018-12-16T05:29:41.325Z,311
2018-12-16T05:30:48.513Z,311
2018-12-16T05:31:55.735Z,311
2018-12-16T05:33:02.659Z,312
2018-12-16T05:34:09.916Z,312
2018-12-16T05:35:17.099Z,312
2018-12-16T05:36:24.289Z,312
2018-12-16T05:37:31.207Z,312
2018-12-16T05:38:38.407Z,312
2018-12-16T05:39:45.600Z,312
2018-12-16T05:40:52.787Z,312
2018-12-16T05:41:59.974Z,312
2018-12-16T05:43:07.163Z,311
2018-12-16T05:44:14.351Z,312
2018-12-16T05:45:21.549Z,311
2018-12-16T05:46:28.466Z,312
2018-12-16T05:47:35.340Z,311
2018-12-16T05:48:42.534Z,312
2018-12-16T05:49:49.743Z,311
2018-12-16T05:50:56.937Z,311
2018-12-16T05:52:04.130Z,312
2018-12-16T05:53:11.053Z,311
2018-12-16T05:54:18.244Z,311
2018-12-16T05:55:25.167Z,311
2018-12-16T23:00:06.510Z,353
2018-12-16T23:01:13.753Z,351
2018-12-16T23:02:20.943Z,350
2018-12-16T23:03:28.137Z,349
2018-12-16T23:04:35.329Z,349
2018-12-16T23:05:42.527Z,348
2018-12-16T23:06:49.721Z,349
2018-12-16T23:07:56.913Z,348
2018-12-16T23:09:04.107Z,349
2018-12-16T23:10:11.029Z,348
2018-12-16T23:11:18.221Z,348
2018-12-16T23:12:25.204Z,348
2018-12-16T23:13:32.116Z,348
2018-12-16T23:14:39.028Z,348
2018-12-16T23:15:46.225Z,348
2018-12-16T23:16:53.145Z,348
2018-12-16T23:18:00.339Z,348
2018-12-16T23:19:07.534Z,348
2018-12-16T23:20:14.724Z,348
2018-12-16T23:21:21.639Z,347
2018-12-16T23:22:28.834Z,348
2018-12-16T23:23:36.028Z,347
2018-12-16T23:24:42.949Z,347
2018-12-16T23:25:50.141Z,347
2018-12-16T23:26:57.335Z,347
2018-12-16T23:28:04.532Z,347
2018-12-16T23:29:11.725Z,348
2018-12-16T23:30:18.921Z,347
2018-12-16T23:31:26.150Z,347
2018-12-16T23:32:32.806Z,347
2018-12-16T23:33:40.001Z,347
2018-12-16T23:34:47.195Z,347
2018-12-16T23:35:54.387Z,347
2018-12-16T23:37:01.592Z,347
2018-12-16T23:38:08.789Z,347
2018-12-16T23:39:15.431Z,347
2018-12-16T23:40:22.625Z,348
2018-12-16T23:41:29.823Z,347
2018-12-16T23:42:37.018Z,347
2018-12-16T23:43:44.209Z,347
2018-12-16T23:44:51.409Z,347
2018-12-16T23:45:58.600Z,347
2018-12-16T23:47:05.790Z,347
2018-12-16T23:48:12.980Z,348
2018-12-16T23:49:20.170Z,346
2018-12-16T23:50:27.362Z,347
2018-12-16T23:51:34.556Z,347
2018-12-16T23:52:41.748Z,346
2018-12-16T23:53:48.945Z,347
2018-12-16T23:54:55.864Z,347
2018-12-16T23:56:03.056Z,347
2018-12-16T23:57:10.255Z,347
2018-12-16T23:58:17.175Z,346
2018-12-16T23:59:24.413Z,346
